Edgar, Nebraska
Current Conditions -  °F | °C
As of 5:35 PM on Monday 22 Dec 2014 (Local Time) from KHJH Reporting Station
Overcast Overcast  
Wind Chill: 38°   Ceiling: 6500
Heat Index: 44°   Visibility: 10mi
Dew Point: 31°   Wind: 10mph
Humidity: 62%   Direction: 320°NW
Pressure: 29.51"   Gusts: NA
Location:  40.37°N, 97.97°W
Report Text: KHJH 222335Z AUTO 32009KT 10SM OVC065 07/00 A2951 RMK AO2 T00651004
Loading
Personal Weather Stations






























Interactive Weather Map New forecast layout! Learn more

10-Day Weather Forecast

Advertisements
Track Severe Weather on mobile